createdAt,value
2023-01-06T00:02:58.949Z,10.80
2023-01-06T00:07:07.611Z,10.80
2023-01-06T00:11:18.060Z,10.80
2023-01-06T00:15:26.617Z,10.90
2023-01-06T00:19:35.146Z,10.80
2023-01-06T00:23:43.985Z,10.90
2023-01-06T00:27:52.602Z,10.80
2023-01-06T00:32:02.830Z,10.90
2023-01-06T00:36:31.052Z,10.90
2023-01-06T00:40:51.712Z,10.80
2023-01-06T00:45:00.291Z,10.80
2023-01-06T00:49:08.931Z,10.70
2023-01-06T00:53:17.464Z,10.70
2023-01-06T00:57:26.280Z,10.70
2023-01-06T01:01:36.548Z,10.70
2023-01-06T01:05:45.183Z,10.80
2023-01-06T01:09:53.750Z,10.70
2023-01-06T01:14:02.375Z,10.70
2023-01-06T01:18:10.953Z,10.80
2023-01-06T01:22:19.505Z,10.70
2023-01-06T01:26:28.051Z,10.70
2023-01-06T01:30:36.608Z,10.70
2023-01-06T01:34:45.268Z,10.70
2023-01-06T01:38:53.900Z,10.70
2023-01-06T01:43:02.522Z,10.70
2023-01-06T01:47:14.356Z,10.70
2023-01-06T01:51:25.977Z,10.70
2023-01-06T01:55:55.518Z,10.70
2023-01-06T02:00:07.718Z,10.80
2023-01-06T02:04:18.108Z,10.70
2023-01-06T02:08:44.995Z,10.70
2023-01-06T02:12:56.585Z,10.70
2023-01-06T02:17:31.844Z,10.70
2023-01-06T02:22:16.806Z,10.60
2023-01-06T02:26:40.532Z,10.70
2023-01-06T02:31:21.431Z,10.70
2023-01-06T02:35:51.477Z,10.70
2023-01-06T02:40:20.891Z,10.60
2023-01-06T02:44:32.690Z,10.60
2023-01-06T02:48:44.339Z,10.60
2023-01-06T02:53:20.162Z,10.70
2023-01-06T02:57:46.841Z,10.60
2023-01-06T03:01:56.944Z,10.60
2023-01-06T03:06:08.761Z,10.60
2023-01-06T03:10:20.513Z,10.60
2023-01-06T03:14:32.215Z,10.60
2023-01-06T03:18:43.021Z,10.60
2023-01-06T03:22:51.618Z,10.60
2023-01-06T03:27:00.495Z,10.60
2023-01-06T03:31:20.931Z,10.50
2023-01-06T03:35:41.428Z,10.50
2023-01-06T03:39:59.004Z,10.40
2023-01-06T03:44:10.563Z,10.40
2023-01-06T03:48:42.737Z,10.50
2023-01-06T03:53:00.600Z,10.50
2023-01-06T03:57:15.139Z,10.50
2023-01-06T04:01:26.356Z,10.50
2023-01-06T04:05:35.124Z,10.50
2023-01-06T04:09:45.585Z,10.50
2023-01-06T04:13:54.008Z,10.50
2023-01-06T04:18:02.643Z,10.50
2023-01-06T04:22:11.278Z,10.60
2023-01-06T04:26:22.001Z,10.60
2023-01-06T04:30:30.374Z,10.60
2023-01-06T04:34:38.996Z,10.50
2023-01-06T04:38:48.239Z,10.60
2023-01-06T04:43:05.919Z,10.70
2023-01-06T04:47:14.814Z,10.70
2023-01-06T04:51:23.537Z,10.80
2023-01-06T04:55:32.466Z,10.80
2023-01-06T04:59:41.114Z,10.70
2023-01-06T05:03:49.769Z,10.70
2023-01-06T05:07:58.344Z,10.80
2023-01-06T05:12:07.064Z,10.90
2023-01-06T05:16:18.876Z,10.80
2023-01-06T05:20:27.531Z,10.80
2023-01-06T05:24:36.044Z,10.80
2023-01-06T05:28:44.685Z,10.80
2023-01-06T05:32:54.181Z,10.80
2023-01-06T05:37:02.767Z,10.80
2023-01-06T05:41:11.491Z,10.70
2023-01-06T05:45:39.424Z,10.70
2023-01-06T05:49:48.001Z,10.80
2023-01-06T05:53:56.947Z,10.80
2023-01-06T05:58:05.529Z,10.80
2023-01-06T06:02:14.223Z,10.90
2023-01-06T06:06:24.282Z,10.90
2023-01-06T06:10:34.782Z,10.90
2023-01-06T06:14:43.152Z,10.80
2023-01-06T06:18:53.972Z,10.80
2023-01-06T06:23:02.568Z,10.70
2023-01-06T06:27:11.091Z,10.80
2023-01-06T06:31:25.288Z,10.70
2023-01-06T06:35:34.081Z,10.70
2023-01-06T06:39:42.657Z,10.80
2023-01-06T06:43:51.903Z,10.70
2023-01-06T06:48:00.415Z,10.80
2023-01-06T06:52:08.973Z,10.90
2023-01-06T06:56:18.971Z,10.80
2023-01-06T07:00:27.900Z,10.80
2023-01-06T07:04:36.560Z,10.70
2023-01-06T07:08:46.466Z,10.70
2023-01-06T07:12:55.123Z,10.90
2023-01-06T07:17:03.676Z,10.80
2023-01-06T07:21:12.412Z,10.80
2023-01-06T07:25:40.302Z,10.90
2023-01-06T07:29:48.853Z,10.80
2023-01-06T07:33:57.422Z,10.80
2023-01-06T07:38:08.011Z,10.90
2023-01-06T07:42:16.561Z,10.90
2023-01-06T07:46:26.149Z,10.90
2023-01-06T07:50:34.895Z,10.90
2023-01-06T07:54:43.520Z,10.90
2023-01-06T07:58:52.050Z,10.90
2023-01-06T08:03:02.146Z,10.90
2023-01-06T08:07:10.647Z,10.90
2023-01-06T08:11:19.196Z,11.00
2023-01-06T08:15:28.119Z,11.00
2023-01-06T08:19:36.861Z,11.00
2023-01-06T08:23:45.489Z,11.00
2023-01-06T08:27:54.191Z,11.00
2023-01-06T08:32:10.320Z,11.00
2023-01-06T08:36:18.209Z,11.00
2023-01-06T08:40:39.092Z,11.00
2023-01-06T08:44:47.852Z,10.90
2023-01-06T08:48:57.930Z,10.90
2023-01-06T08:53:07.120Z,11.10
2023-01-06T08:57:35.158Z,11.10
2023-01-06T09:01:44.230Z,11.00
2023-01-06T09:05:57.625Z,11.10
2023-01-06T09:10:07.500Z,11.00
2023-01-06T09:14:16.079Z,11.00
2023-01-06T09:18:24.744Z,11.00
2023-01-06T09:22:33.303Z,11.00
2023-01-06T09:26:42.026Z,11.00
2023-01-06T09:30:51.083Z,11.10
2023-01-06T09:34:59.661Z,11.00
2023-01-06T09:39:08.346Z,10.90
2023-01-06T09:43:41.214Z,10.90
2023-01-06T09:47:52.845Z,10.90
2023-01-06T09:52:04.478Z,10.90
2023-01-06T09:56:15.862Z,11.00
2023-01-06T10:00:49.601Z,10.90
2023-01-06T10:04:58.226Z,11.00
2023-01-06T10:09:09.845Z,10.90
2023-01-06T10:13:39.770Z,11.00
2023-01-06T10:18:25.040Z,10.90
2023-01-06T10:22:42.412Z,11.00
2023-01-06T10:26:54.047Z,11.00
2023-01-06T10:31:08.765Z,11.10
2023-01-06T10:35:19.995Z,11.10
2023-01-06T10:39:29.271Z,11.20
2023-01-06T10:43:49.792Z,11.20
2023-01-06T10:47:59.535Z,11.20
2023-01-06T10:52:10.955Z,11.20
2023-01-06T10:56:19.508Z,11.20
2023-01-06T11:00:57.572Z,11.20
2023-01-06T11:05:06.637Z,11.40
2023-01-06T11:09:42.931Z,11.30
2023-01-06T11:14:12.410Z,11.30
2023-01-06T11:18:29.540Z,11.30
2023-01-06T11:22:40.345Z,11.50
2023-01-06T11:27:18.114Z,11.50
2023-01-06T11:31:28.761Z,11.70
2023-01-06T11:35:38.664Z,11.70
2023-01-06T11:39:49.224Z,11.80
2023-01-06T11:44:00.391Z,11.80
2023-01-06T11:48:14.951Z,11.80
2023-01-06T11:52:33.723Z,11.80
2023-01-06T11:56:42.725Z,11.70
2023-01-06T12:00:57.665Z,11.90
2023-01-06T12:05:09.299Z,11.90
2023-01-06T12:09:26.830Z,12.00
2023-01-06T12:13:44.297Z,12.10
2023-01-06T12:17:54.328Z,12.30
2023-01-06T12:22:03.968Z,12.40
2023-01-06T12:26:18.629Z,12.50
2023-01-06T12:30:51.248Z,12.50
2023-01-06T12:35:03.067Z,12.30
2023-01-06T12:39:20.532Z,12.20
2023-01-06T12:43:32.496Z,12.40
2023-01-06T12:47:46.935Z,12.40
2023-01-06T12:51:58.108Z,12.50
2023-01-06T12:56:24.976Z,12.40
2023-01-06T13:00:45.942Z,12.50
2023-01-06T13:05:09.782Z,12.40
2023-01-06T13:09:33.015Z,12.30
2023-01-06T13:13:56.324Z,12.20
2023-01-06T13:18:13.971Z,12.30
2023-01-06T13:22:28.442Z,12.30
2023-01-06T13:27:01.327Z,12.30
2023-01-06T13:31:23.339Z,12.20
2023-01-06T13:35:51.760Z,12.10
2023-01-06T13:40:06.115Z,12.10
2023-01-06T13:44:26.364Z,12.10
2023-01-06T13:48:40.957Z,12.10
2023-01-06T13:52:51.054Z,12.10
2023-01-06T13:57:24.071Z,12.00
2023-01-06T14:01:34.261Z,12.10
2023-01-06T14:05:46.114Z,12.10
2023-01-06T14:09:54.958Z,12.10
2023-01-06T14:14:06.409Z,12.10
2023-01-06T14:18:18.150Z,12.00
2023-01-06T14:22:47.688Z,12.00
2023-01-06T14:27:02.557Z,12.10
2023-01-06T14:31:29.317Z,12.00
2023-01-06T14:35:42.915Z,11.90
2023-01-06T14:39:54.139Z,11.80
2023-01-06T14:44:05.931Z,11.70
2023-01-06T14:48:17.796Z,11.60
2023-01-06T14:52:38.101Z,11.80
2023-01-06T14:57:06.305Z,11.70
2023-01-06T15:01:24.577Z,11.70
2023-01-06T15:05:38.639Z,11.60
2023-01-06T15:09:49.182Z,11.60
2023-01-06T15:13:58.258Z,11.50
2023-01-06T15:18:08.447Z,11.50
2023-01-06T15:22:22.881Z,11.50
2023-01-06T15:26:32.656Z,11.50
2023-01-06T15:30:44.355Z,11.40
2023-01-06T15:34:56.357Z,11.40
2023-01-06T15:39:07.497Z,11.40
2023-01-06T15:43:17.006Z,11.50
2023-01-06T15:47:46.580Z,11.40
2023-01-06T15:51:58.926Z,11.40
2023-01-06T15:56:09.536Z,11.40
2023-01-06T16:00:39.019Z,11.30
2023-01-06T16:04:48.987Z,11.30
2023-01-06T16:09:23.907Z,11.30
2023-01-06T16:14:00.905Z,11.30
2023-01-06T16:18:10.172Z,11.20
2023-01-06T16:22:33.624Z,11.30
2023-01-06T16:26:48.365Z,11.30
2023-01-06T16:31:14.601Z,11.20
2023-01-06T16:35:28.922Z,11.30
2023-01-06T16:39:37.468Z,11.20
2023-01-06T16:43:58.792Z,11.20
2023-01-06T16:48:07.531Z,11.20
2023-01-06T16:52:35.469Z,11.20
2023-01-06T16:56:45.242Z,11.20
2023-01-06T17:00:56.314Z,11.20
2023-01-06T17:05:07.521Z,11.20
2023-01-06T17:09:21.622Z,11.10
2023-01-06T17:13:39.005Z,11.00
2023-01-06T17:17:47.723Z,11.00
2023-01-06T17:22:05.233Z,11.00
2023-01-06T17:26:16.595Z,10.90
2023-01-06T17:30:25.168Z,10.90
2023-01-06T17:34:35.840Z,11.00
2023-01-06T17:38:47.963Z,10.90
2023-01-06T17:43:02.563Z,11.00
2023-01-06T17:47:14.246Z,11.00
2023-01-06T17:51:22.967Z,10.90
2023-01-06T17:55:43.572Z,10.90
2023-01-06T17:59:55.147Z,10.90
2023-01-06T18:04:05.412Z,11.00
2023-01-06T18:08:16.831Z,11.00
2023-01-06T18:12:26.215Z,10.90
2023-01-06T18:16:35.694Z,11.00
2023-01-06T18:20:56.460Z,10.90
2023-01-06T18:25:07.652Z,11.10
2023-01-06T18:29:22.205Z,11.00
2023-01-06T18:33:51.004Z,11.00
2023-01-06T18:38:05.473Z,11.00
2023-01-06T18:42:32.240Z,10.90
2023-01-06T18:46:42.510Z,11.00
2023-01-06T18:50:53.177Z,11.00
2023-01-06T18:55:25.976Z,10.90
2023-01-06T18:59:34.506Z,11.00
2023-01-06T19:03:45.678Z,10.90
2023-01-06T19:07:57.503Z,10.90
2023-01-06T19:12:20.708Z,10.90
2023-01-06T19:16:53.496Z,10.90
2023-01-06T19:21:04.140Z,10.90
2023-01-06T19:25:36.510Z,10.90
2023-01-06T19:29:45.128Z,10.90
2023-01-06T19:33:59.698Z,11.00
2023-01-06T19:38:11.301Z,11.00
2023-01-06T19:42:32.071Z,11.00
2023-01-06T19:46:42.998Z,11.00
2023-01-06T19:51:15.172Z,10.90
2023-01-06T19:55:29.359Z,11.00
2023-01-06T19:59:58.804Z,11.00
2023-01-06T20:04:19.355Z,10.90
2023-01-06T20:08:27.984Z,10.90
2023-01-06T20:12:38.415Z,10.90
2023-01-06T20:16:47.893Z,10.90
2023-01-06T20:20:56.537Z,10.90
2023-01-06T20:25:05.499Z,10.90
2023-01-06T20:29:14.112Z,10.80
2023-01-06T20:33:22.729Z,10.90
2023-01-06T20:37:32.378Z,10.90
2023-01-06T20:41:41.007Z,10.80
2023-01-06T20:46:10.495Z,10.90
2023-01-06T20:50:20.676Z,10.80
2023-01-06T20:54:29.252Z,10.80
2023-01-06T20:58:37.844Z,10.80
2023-01-06T21:02:46.460Z,10.90
2023-01-06T21:06:55.057Z,10.80
2023-01-06T21:11:03.627Z,10.80
2023-01-06T21:15:12.730Z,10.80
2023-01-06T21:19:21.317Z,10.80
2023-01-06T21:23:29.935Z,10.80
2023-01-06T21:27:38.489Z,10.80
2023-01-06T21:31:48.038Z,10.80
2023-01-06T21:35:56.630Z,10.80
2023-01-06T21:40:08.948Z,10.80
2023-01-06T21:44:17.575Z,10.80
2023-01-06T21:48:45.561Z,10.80
2023-01-06T21:52:54.704Z,10.80
2023-01-06T21:57:03.735Z,10.80
2023-01-06T22:01:13.180Z,10.90
2023-01-06T22:05:22.293Z,10.90
2023-01-06T22:09:31.805Z,10.90
2023-01-06T22:13:42.086Z,10.80
2023-01-06T22:17:51.497Z,10.80
2023-01-06T22:22:21.429Z,10.80
2023-01-06T22:26:29.994Z,10.90
2023-01-06T22:30:38.993Z,10.90
2023-01-06T22:34:48.243Z,10.90
2023-01-06T22:38:56.851Z,10.90
2023-01-06T22:43:08.344Z,10.90
2023-01-06T22:47:16.975Z,10.80
2023-01-06T22:51:27.325Z,10.80
2023-01-06T22:55:36.147Z,10.90
2023-01-06T22:59:44.754Z,10.90
2023-01-06T23:03:53.294Z,10.80
2023-01-06T23:08:01.969Z,10.90
2023-01-06T23:12:10.518Z,10.80
2023-01-06T23:16:22.144Z,10.80
2023-01-06T23:20:30.713Z,10.70
2023-01-06T23:24:39.240Z,10.70
2023-01-06T23:28:48.092Z,10.60
2023-01-06T23:32:56.600Z,10.60
2023-01-06T23:37:05.152Z,10.60
2023-01-06T23:41:19.338Z,10.70
2023-01-06T23:45:28.017Z,10.60
2023-01-06T23:49:36.578Z,10.70
2023-01-06T23:53:46.205Z,10.70
2023-01-06T23:57:54.744Z,10.60
